Quartz Hill, CA (93536)

1:39 PM PST on December 26, 2014 (GMT -0800)
KR6C - Quartz Hill (Ave L and 50th W) | Change Station
CLOSE
Current Station
Personal Weather Station
Location: Quartz Hill, CA
Elevation: 2450 ft
Nearby Weather Stations

Elev 2450 ft 34.65 °N, 118.22 °W | Updated 2 hours ago

Clear
Clear
44.4 °F
Feels Like 44 °F
N
3.0
Wind Variable Wind from NE
Gusts 12.0 mph

Today
High -- | Low -- °F
--% Chance of Precip.
Yesterday
High -- | Low -- °F
Precip. -- in
6:58 AM 4:48 PM
Waxing Crescent, 29% visible
Pressure 30.14 in
Visibility 10.0 miles
Clouds Clear
Windchill 44 °F
Dew Point 20 °F
Humidity 38%
Rainfall 0.00 in
Snow Depth Not available.
UV 3 out of 12
Pollen 7.00 out of 12
Air Quality Not available.
Flu Activity Not available.
METAR KWJF 262056Z 07010KT 10SM CLR 09/M09 A3010 RMK AO2 SLP206 T00891094 58017

More Conditions Fewer Conditions

Pressure 30.14 in
Visibility 10.0 miles
Clouds Clear
Windchill 44 °F
Dew Point 20 °F
Humidity 38%
Rainfall 0.00 in
Snow Depth Not available.
UV 3 out of 12
Pollen 7.00 out of 12
Air Quality Not available.
Flu Activity Not available.
METAR KWJF 262056Z 07010KT 10SM CLR 09/M09 A3010 RMK AO2 SLP206 T00891094 58017

More Conditions Fewer Conditions

10-Day Weather Forecast

Almanac

Astronomy

Dec. 26, 2014 Rise Set
Actual Time
Civil Twilight
Nautical Twilight
Astronomical Twilight
Moon
Length of Visible Light
Length of Day
Tomorrow will be .
, % of the Moon is Illuminated

Today's Extremes

State Highs State Lows

Community

WunderPhotos

Upload Photos

1,780,719 photos uploaded!

WunderBlogs® & News

Nearby

Air Quality

  Air Quality AQ Index Pollutant
Not available.

Snow Depth

Station Depth Elevation

Earthquake Activity

City Distance Mag. Time & Date
Minimum magnitude displayed is 2.5.

Coastal Water Temperatures

Place Temperature

Nearby Weather Stations